createdAt,value
2022-10-05T00:00:57.012Z,10.43
2022-10-05T00:03:33.516Z,10.36
2022-10-05T00:06:01.658Z,10.46
2022-10-05T00:08:33.281Z,10.54
2022-10-05T00:11:01.700Z,10.60
2022-10-05T00:13:31.989Z,10.63
2022-10-05T00:16:01.353Z,10.56
2022-10-05T00:18:30.553Z,10.67
2022-10-05T00:20:59.366Z,10.68
2022-10-05T00:23:29.414Z,10.70
2022-10-05T00:25:58.374Z,10.73
2022-10-05T00:28:27.829Z,10.78
2022-10-05T00:30:57.292Z,10.79
2022-10-05T00:33:25.320Z,10.86
2022-10-05T00:35:54.938Z,10.88
2022-10-05T00:38:22.775Z,10.97
2022-10-05T00:40:59.505Z,11.00
2022-10-05T00:43:38.914Z,10.99
2022-10-05T00:46:10.751Z,10.94
2022-10-05T00:48:43.833Z,10.99
2022-10-05T00:51:18.963Z,10.91
2022-10-05T00:53:55.688Z,11.06
2022-10-05T00:56:36.240Z,11.04
2022-10-05T00:59:12.070Z,11.04
2022-10-05T01:01:45.227Z,11.07
2022-10-05T01:04:17.173Z,11.08
2022-10-05T01:06:56.650Z,11.10
2022-10-05T01:09:32.206Z,11.11
2022-10-05T01:12:04.941Z,11.02
2022-10-05T01:14:38.041Z,11.12
2022-10-05T01:17:08.928Z,11.17
2022-10-05T01:19:58.777Z,11.24
2022-10-05T01:22:46.939Z,11.12
2022-10-05T01:25:23.084Z,11.20
2022-10-05T01:27:57.561Z,11.23
2022-10-05T01:30:25.354Z,11.28
2022-10-05T01:33:00.073Z,11.29
2022-10-05T01:35:37.195Z,11.38
2022-10-05T01:38:15.867Z,11.41
2022-10-05T01:40:49.670Z,11.31
2022-10-05T01:43:24.945Z,11.22
2022-10-05T01:45:59.729Z,11.29
2022-10-05T01:48:35.411Z,11.30
2022-10-05T01:51:09.036Z,11.31
2022-10-05T01:53:43.996Z,11.16
2022-10-05T01:56:20.286Z,11.19
2022-10-05T01:58:54.718Z,11.23
2022-10-05T02:01:26.354Z,11.20
2022-10-05T02:03:56.419Z,11.20
2022-10-05T02:06:25.330Z,11.22
2022-10-05T02:08:57.172Z,11.21
2022-10-05T02:11:25.739Z,11.34
2022-10-05T02:13:58.585Z,11.25
2022-10-05T02:16:31.935Z,11.20
2022-10-05T02:19:03.421Z,11.20
2022-10-05T02:21:32.103Z,11.17
2022-10-05T02:24:05.042Z,11.19
2022-10-05T02:26:34.391Z,11.07
2022-10-05T02:29:05.829Z,11.05
2022-10-05T02:31:38.262Z,10.97
2022-10-05T02:34:23.751Z,11.13
2022-10-05T02:36:54.916Z,11.11
2022-10-05T02:39:28.566Z,11.10
2022-10-05T02:42:05.121Z,11.01
2022-10-05T02:44:39.901Z,11.03
2022-10-05T02:47:13.786Z,10.98
2022-10-05T02:49:46.311Z,11.14
2022-10-05T02:52:18.696Z,11.04
2022-10-05T02:54:52.152Z,11.09
2022-10-05T02:57:25.364Z,11.08
2022-10-05T02:59:59.598Z,11.16
2022-10-05T03:02:31.902Z,11.09
2022-10-05T03:05:09.545Z,11.12
2022-10-05T03:07:43.145Z,11.09
2022-10-05T03:10:14.683Z,11.07
2022-10-05T03:12:51.139Z,11.15
2022-10-05T03:15:43.563Z,11.17
2022-10-05T03:18:17.352Z,11.21
2022-10-05T03:20:48.633Z,11.20
2022-10-05T03:23:21.251Z,11.25
2022-10-05T03:26:08.220Z,11.18
2022-10-05T03:28:41.770Z,11.32
2022-10-05T03:31:16.667Z,11.24
2022-10-05T03:33:47.894Z,11.15
2022-10-05T03:36:22.505Z,11.28
2022-10-05T03:38:55.816Z,11.34
2022-10-05T03:41:30.075Z,11.57
2022-10-05T03:44:19.390Z,11.53
2022-10-05T03:46:59.580Z,11.38
2022-10-05T03:49:33.390Z,11.42
2022-10-05T03:52:04.604Z,11.43
2022-10-05T03:54:36.135Z,11.47
2022-10-05T03:57:09.006Z,11.41
2022-10-05T03:59:41.762Z,11.53
2022-10-05T04:02:17.251Z,11.58
2022-10-05T04:04:49.210Z,11.57
2022-10-05T04:07:29.539Z,11.43
2022-10-05T04:09:58.618Z,11.47
2022-10-05T04:12:28.452Z,11.51
2022-10-05T04:14:59.700Z,11.41
2022-10-05T04:17:34.098Z,11.49
2022-10-05T04:20:04.391Z,11.60
2022-10-05T04:22:35.833Z,11.35
2022-10-05T04:25:09.435Z,11.41
2022-10-05T04:27:40.009Z,11.38
2022-10-05T04:30:12.687Z,11.42
2022-10-05T04:32:43.970Z,11.39
2022-10-05T04:35:26.087Z,11.52
2022-10-05T04:38:00.483Z,11.39
2022-10-05T04:40:41.247Z,11.62
2022-10-05T04:43:12.341Z,11.37
2022-10-05T04:45:54.115Z,11.27
2022-10-05T04:48:32.250Z,11.60
2022-10-05T04:51:12.472Z,11.51
2022-10-05T04:53:43.848Z,11.56
2022-10-05T04:56:13.434Z,11.69
2022-10-05T04:58:51.991Z,11.75
2022-10-05T05:01:34.866Z,11.78
2022-10-05T05:04:20.381Z,11.81
2022-10-05T05:06:55.415Z,11.82
2022-10-05T05:09:45.135Z,11.87
2022-10-05T05:12:21.915Z,11.85
2022-10-05T05:15:03.303Z,11.79
2022-10-05T05:17:42.427Z,11.74
2022-10-05T05:20:20.507Z,11.70
2022-10-05T05:22:53.322Z,11.83
2022-10-05T05:25:28.980Z,11.73
2022-10-05T05:27:59.877Z,11.72
2022-10-05T05:30:33.807Z,11.76
2022-10-05T05:33:23.051Z,11.83
2022-10-05T05:36:28.871Z,11.76
2022-10-05T05:39:12.682Z,11.81
2022-10-05T05:41:46.298Z,11.85
2022-10-05T05:44:21.482Z,11.86
2022-10-05T05:47:03.387Z,11.90
2022-10-05T05:49:49.427Z,11.93
2022-10-05T05:52:21.779Z,12.01
2022-10-05T05:54:55.365Z,12.01
2022-10-05T05:57:27.595Z,12.09
2022-10-05T06:00:05.635Z,12.15
2022-10-05T06:02:39.267Z,12.22
2022-10-05T06:05:18.297Z,12.32
2022-10-05T06:07:46.093Z,12.36
2022-10-05T06:10:20.512Z,12.40
2022-10-05T06:12:49.935Z,12.43
2022-10-05T06:15:24.844Z,12.48
2022-10-05T06:17:55.495Z,12.61
2022-10-05T06:20:26.964Z,12.66
2022-10-05T06:22:57.167Z,12.75
2022-10-05T06:25:36.115Z,12.83
2022-10-05T06:28:10.422Z,12.84
2022-10-05T06:30:46.755Z,12.83
2022-10-05T06:33:24.365Z,12.91
2022-10-05T06:36:05.524Z,13.00
2022-10-05T06:39:00.621Z,13.04
2022-10-05T06:41:39.869Z,13.18
2022-10-05T06:44:11.153Z,13.31
2022-10-05T06:46:47.071Z,13.30
2022-10-05T06:49:20.653Z,13.38
2022-10-05T06:51:59.466Z,13.40
2022-10-05T06:54:35.386Z,13.44
2022-10-05T06:57:08.371Z,13.46
2022-10-05T06:59:41.815Z,13.54
2022-10-05T07:02:17.909Z,13.64
2022-10-05T07:04:56.154Z,13.87
2022-10-05T07:07:26.060Z,13.93
2022-10-05T07:10:01.478Z,13.93
2022-10-05T07:12:41.347Z,14.04
2022-10-05T07:15:22.620Z,14.06
2022-10-05T07:18:00.538Z,14.09
2022-10-05T07:20:32.018Z,14.06
2022-10-05T07:23:15.211Z,13.99
2022-10-05T07:25:47.807Z,14.08
2022-10-05T07:28:20.851Z,14.20
2022-10-05T07:30:56.079Z,14.21
2022-10-05T07:33:27.394Z,14.35
2022-10-05T07:36:17.440Z,14.32
2022-10-05T07:38:49.925Z,14.49
2022-10-05T07:41:20.890Z,14.49
2022-10-05T07:44:02.556Z,14.34
2022-10-05T07:46:38.941Z,14.37
2022-10-05T07:49:28.975Z,14.41
2022-10-05T07:52:00.757Z,14.42
2022-10-05T07:54:33.664Z,14.45
2022-10-05T07:57:07.428Z,14.46
2022-10-05T07:59:44.154Z,14.41
2022-10-05T08:02:18.368Z,14.44
2022-10-05T08:04:50.287Z,14.53
2022-10-05T08:07:19.231Z,14.47
2022-10-05T08:09:53.291Z,14.47
2022-10-05T08:12:26.769Z,14.55
2022-10-05T08:14:59.440Z,14.66
2022-10-05T08:17:39.321Z,14.81
2022-10-05T08:20:18.122Z,14.91
2022-10-05T08:22:49.701Z,15.03
2022-10-05T08:25:24.279Z,15.08
2022-10-05T08:27:54.303Z,15.10
2022-10-05T08:30:23.873Z,15.22
2022-10-05T08:32:56.337Z,15.25
2022-10-05T08:35:34.187Z,15.34
2022-10-05T08:38:03.576Z,15.33
2022-10-05T08:41:23.940Z,15.41
2022-10-05T08:44:06.109Z,15.63
2022-10-05T08:46:58.912Z,15.65
2022-10-05T08:49:45.761Z,15.72
2022-10-05T08:52:24.152Z,15.91
2022-10-05T08:55:13.134Z,15.92
2022-10-05T08:58:10.885Z,15.89
2022-10-05T09:00:50.024Z,16.10
2022-10-05T09:03:34.222Z,15.99
2022-10-05T09:06:35.451Z,16.09
2022-10-05T09:09:31.024Z,16.11
2022-10-05T09:12:21.132Z,16.38
2022-10-05T09:15:23.792Z,16.42
2022-10-05T09:18:10.933Z,16.41
2022-10-05T09:20:52.718Z,16.43
2022-10-05T09:23:32.978Z,16.50
2022-10-05T09:26:04.639Z,16.52
2022-10-05T09:28:35.647Z,16.69
2022-10-05T09:31:14.721Z,16.80
2022-10-05T09:34:11.932Z,16.85
2022-10-05T09:37:20.687Z,17.03
2022-10-05T09:40:22.711Z,16.80
2022-10-05T09:43:03.741Z,17.12
2022-10-05T09:45:50.085Z,17.12
2022-10-05T09:48:38.808Z,17.20
2022-10-05T09:51:19.791Z,17.14
2022-10-05T09:54:11.787Z,17.35
2022-10-05T09:57:12.530Z,17.37
2022-10-05T10:00:09.158Z,17.34
2022-10-05T10:02:52.335Z,17.49
2022-10-05T10:05:39.388Z,17.59
2022-10-05T10:08:20.211Z,17.86
2022-10-05T10:10:55.837Z,17.77
2022-10-05T10:13:45.958Z,17.57
2022-10-05T10:16:23.825Z,17.66
2022-10-05T10:19:10.441Z,17.66
2022-10-05T10:22:03.248Z,17.68
2022-10-05T10:24:53.066Z,18.14
2022-10-05T10:27:37.250Z,17.81
2022-10-05T10:30:35.739Z,18.21
2022-10-05T10:33:15.668Z,18.12
2022-10-05T10:35:46.368Z,18.10
2022-10-05T10:38:41.384Z,18.02
2022-10-05T10:41:42.390Z,18.13
2022-10-05T10:44:33.448Z,18.12
2022-10-05T10:47:23.502Z,18.58
2022-10-05T10:50:24.282Z,18.28
2022-10-05T10:53:03.877Z,18.49
2022-10-05T10:55:36.025Z,18.79
2022-10-05T10:58:27.450Z,18.57
2022-10-05T11:01:05.273Z,18.37
2022-10-05T11:04:11.140Z,18.26
2022-10-05T11:06:51.890Z,18.40
2022-10-05T11:09:30.782Z,18.57
2022-10-05T11:12:29.880Z,18.21
2022-10-05T11:15:44.745Z,18.49
2022-10-05T11:18:20.313Z,18.42
2022-10-05T11:21:03.820Z,18.36
2022-10-05T11:23:55.310Z,18.09
2022-10-05T11:26:33.632Z,18.10
2022-10-05T11:29:33.642Z,18.19
2022-10-05T11:32:14.481Z,18.23
2022-10-05T11:35:02.023Z,18.24
2022-10-05T11:37:50.409Z,18.15
2022-10-05T11:41:03.363Z,18.50
2022-10-05T11:44:10.307Z,18.83
2022-10-05T11:46:42.569Z,18.46
2022-10-05T11:49:35.286Z,18.48
2022-10-05T11:52:12.175Z,18.53
2022-10-05T11:55:12.416Z,18.68
2022-10-05T11:57:47.103Z,18.33
2022-10-05T12:00:18.385Z,18.38
2022-10-05T12:03:13.073Z,18.28
2022-10-05T12:05:53.228Z,18.60
2022-10-05T12:08:29.788Z,18.76
2022-10-05T12:11:07.139Z,18.75
2022-10-05T12:13:40.865Z,18.59
2022-10-05T12:16:14.033Z,19.02
2022-10-05T12:18:47.639Z,19.08
2022-10-05T12:21:22.870Z,19.17
2022-10-05T12:23:54.742Z,19.38
2022-10-05T12:26:28.056Z,19.44
2022-10-05T12:28:59.299Z,19.28
2022-10-05T12:31:35.038Z,19.57
2022-10-05T12:34:06.876Z,19.17
2022-10-05T12:37:02.482Z,19.50
2022-10-05T12:39:33.742Z,19.70
2022-10-05T12:42:14.564Z,19.28
2022-10-05T12:44:59.612Z,19.58
2022-10-05T12:47:35.368Z,19.27
2022-10-05T12:50:12.144Z,19.61
2022-10-05T12:52:52.455Z,19.52
2022-10-05T12:55:26.093Z,20.03
2022-10-05T12:58:05.436Z,19.94
2022-10-05T13:00:38.272Z,19.99
2022-10-05T13:03:14.363Z,20.25
2022-10-05T13:05:46.864Z,20.29
2022-10-05T13:08:20.289Z,20.52
2022-10-05T13:10:50.226Z,20.24
2022-10-05T13:13:33.659Z,20.65
2022-10-05T13:16:09.256Z,21.58
2022-10-05T13:18:46.269Z,21.87
2022-10-05T13:21:18.325Z,22.32
2022-10-05T13:23:57.365Z,22.53
2022-10-05T13:26:29.681Z,22.20
2022-10-05T13:29:05.307Z,22.46
2022-10-05T13:31:40.185Z,22.38
2022-10-05T13:34:15.762Z,22.86
2022-10-05T13:36:50.438Z,23.59
2022-10-05T13:39:29.101Z,23.60
2022-10-05T13:42:00.857Z,23.11
2022-10-05T13:44:33.990Z,23.56
2022-10-05T13:47:06.664Z,22.65
2022-10-05T13:49:40.368Z,23.17
2022-10-05T13:52:21.072Z,22.96
2022-10-05T13:54:54.616Z,23.10
2022-10-05T13:57:32.525Z,23.32
2022-10-05T14:00:05.404Z,23.69
2022-10-05T14:02:40.373Z,24.96
2022-10-05T14:05:17.261Z,25.04
2022-10-05T14:07:51.115Z,24.20
2022-10-05T14:10:32.065Z,24.03
2022-10-05T14:13:00.089Z,23.85
2022-10-05T14:15:38.458Z,23.67
2022-10-05T14:18:23.764Z,24.13
2022-10-05T14:21:16.772Z,24.29
2022-10-05T14:23:45.080Z,25.33
2022-10-05T14:26:19.949Z,24.49
2022-10-05T14:28:59.156Z,24.28
2022-10-05T14:31:34.256Z,24.27
2022-10-05T14:34:31.741Z,25.32
2022-10-05T14:37:02.235Z,25.60
2022-10-05T14:39:34.768Z,26.18
2022-10-05T14:42:14.839Z,25.66
2022-10-05T14:44:43.216Z,24.90
2022-10-05T14:47:21.265Z,25.74
2022-10-05T14:50:11.731Z,26.82
2022-10-05T14:52:41.107Z,25.85
2022-10-05T14:55:32.650Z,25.60
2022-10-05T14:58:10.216Z,26.72
2022-10-05T15:00:45.588Z,25.98
2022-10-05T15:03:34.666Z,27.76
2022-10-05T15:06:03.666Z,25.83
2022-10-05T15:08:42.611Z,25.08
2022-10-05T15:11:15.057Z,25.62
2022-10-05T15:13:45.009Z,25.81
2022-10-05T15:16:20.355Z,26.30
2022-10-05T15:19:02.551Z,26.09
2022-10-05T15:22:32.000Z,24.16
2022-10-05T15:25:10.175Z,22.81
2022-10-05T15:27:47.110Z,24.39
2022-10-05T15:30:18.390Z,23.87
2022-10-05T15:32:59.351Z,24.99
2022-10-05T15:35:36.721Z,25.28
2022-10-05T15:38:12.977Z,25.30
2022-10-05T15:40:45.198Z,24.96
2022-10-05T15:43:16.263Z,23.60
2022-10-05T15:45:53.596Z,23.91
2022-10-05T15:48:29.205Z,23.83
2022-10-05T15:51:02.507Z,23.80
2022-10-05T15:53:36.981Z,23.34
2022-10-05T15:56:07.487Z,21.64
2022-10-05T15:58:47.774Z,20.68
2022-10-05T16:01:19.954Z,20.31
2022-10-05T16:03:53.444Z,20.19
2022-10-05T16:06:54.290Z,20.30
2022-10-05T16:09:43.167Z,20.30
2022-10-05T16:12:27.322Z,20.21
2022-10-05T16:15:17.603Z,20.12
2022-10-05T16:18:15.489Z,20.02
2022-10-05T16:20:50.173Z,19.94
2022-10-05T16:23:26.454Z,19.83
2022-10-05T16:26:09.141Z,19.78
2022-10-05T16:28:44.567Z,19.21
2022-10-05T16:31:17.844Z,19.31
2022-10-05T16:33:56.878Z,19.01
2022-10-05T16:36:33.333Z,18.79
2022-10-05T16:39:06.572Z,18.70
2022-10-05T16:41:41.068Z,18.63
2022-10-05T16:44:15.445Z,18.56
2022-10-05T16:46:46.772Z,18.34
2022-10-05T16:49:20.957Z,18.24
2022-10-05T16:51:55.288Z,17.96
2022-10-05T16:54:26.374Z,18.15
2022-10-05T16:56:57.073Z,18.15
2022-10-05T16:59:58.489Z,17.88
2022-10-05T17:02:39.246Z,17.90
2022-10-05T17:05:20.178Z,18.08
2022-10-05T17:07:58.730Z,17.84
2022-10-05T17:10:49.881Z,17.99
2022-10-05T17:13:31.537Z,17.85
2022-10-05T17:16:05.579Z,17.84
2022-10-05T17:18:52.192Z,17.89
2022-10-05T17:21:24.204Z,18.27
2022-10-05T17:23:56.078Z,18.27
2022-10-05T17:26:40.968Z,18.41
2022-10-05T17:29:16.836Z,18.69
2022-10-05T17:32:09.284Z,18.55
2022-10-05T17:34:39.138Z,18.52
2022-10-05T17:37:18.861Z,18.66
2022-10-05T17:39:50.048Z,18.44
2022-10-05T17:42:49.562Z,18.44
2022-10-05T17:45:52.885Z,18.40
2022-10-05T17:48:43.105Z,18.38
2022-10-05T17:51:36.365Z,18.34
2022-10-05T17:54:47.165Z,18.20
2022-10-05T17:57:23.768Z,18.12
2022-10-05T18:00:02.333Z,18.04
2022-10-05T18:02:42.822Z,18.02
2022-10-05T18:05:27.654Z,17.91
2022-10-05T18:08:32.604Z,17.89
2022-10-05T18:11:17.261Z,17.76
2022-10-05T18:14:46.413Z,17.69
2022-10-05T18:17:16.000Z,17.68
2022-10-05T18:20:22.259Z,17.71
2022-10-05T18:22:53.746Z,17.62
2022-10-05T18:25:27.254Z,17.60
2022-10-05T18:28:18.667Z,17.61
2022-10-05T18:31:01.907Z,17.54
2022-10-05T18:33:54.618Z,17.60
2022-10-05T18:36:37.843Z,17.53
2022-10-05T18:39:13.045Z,17.54
2022-10-05T18:41:48.542Z,17.54
2022-10-05T18:44:35.703Z,17.56
2022-10-05T18:47:08.177Z,17.48
2022-10-05T18:49:47.412Z,17.47
2022-10-05T18:52:20.738Z,17.39
2022-10-05T18:54:56.025Z,17.47
2022-10-05T18:57:43.933Z,17.66
2022-10-05T19:00:18.896Z,17.58
2022-10-05T19:02:49.848Z,17.59
2022-10-05T19:05:46.827Z,17.56
2022-10-05T19:08:21.849Z,17.54
2022-10-05T19:11:00.026Z,17.65
2022-10-05T19:13:37.814Z,17.51
2022-10-05T19:16:22.523Z,17.38
2022-10-05T19:19:04.262Z,17.44
2022-10-05T19:21:39.316Z,17.59
2022-10-05T19:24:21.947Z,17.48
2022-10-05T19:27:01.201Z,17.52
2022-10-05T19:29:40.644Z,17.44
2022-10-05T19:32:18.589Z,17.49
2022-10-05T19:35:01.302Z,17.49
2022-10-05T19:37:38.261Z,17.44
2022-10-05T19:40:12.463Z,17.41
2022-10-05T19:42:59.193Z,17.43
2022-10-05T19:45:29.253Z,17.47
2022-10-05T19:48:08.500Z,17.57
2022-10-05T19:50:38.512Z,17.76
2022-10-05T19:53:13.453Z,17.55
2022-10-05T19:55:43.521Z,17.57
2022-10-05T19:58:23.480Z,17.69
2022-10-05T20:00:56.928Z,17.63
2022-10-05T20:03:27.754Z,17.67
2022-10-05T20:06:01.224Z,17.50
2022-10-05T20:08:39.540Z,17.61
2022-10-05T20:11:10.874Z,17.57
2022-10-05T20:13:41.818Z,17.57
2022-10-05T20:16:39.597Z,17.58
2022-10-05T20:19:49.717Z,17.75
2022-10-05T20:22:28.671Z,17.57
2022-10-05T20:25:00.140Z,17.69
2022-10-05T20:27:44.836Z,17.78
2022-10-05T20:30:14.792Z,17.74
2022-10-05T20:32:44.106Z,17.78
2022-10-05T20:35:12.313Z,17.82
2022-10-05T20:37:41.300Z,17.67
2022-10-05T20:40:11.996Z,17.65
2022-10-05T20:42:39.597Z,17.58
2022-10-05T20:45:08.180Z,17.65
2022-10-05T20:47:37.480Z,17.62
2022-10-05T20:50:09.239Z,17.56
2022-10-05T20:52:37.564Z,17.65
2022-10-05T20:55:06.527Z,17.71
2022-10-05T20:57:38.788Z,17.65
2022-10-05T21:00:07.870Z,17.81
2022-10-05T21:02:35.931Z,17.76
2022-10-05T21:05:04.542Z,17.81
2022-10-05T21:07:34.242Z,17.81
2022-10-05T21:10:03.164Z,17.87
2022-10-05T21:12:31.026Z,17.85
2022-10-05T21:15:00.440Z,17.86
2022-10-05T21:17:28.315Z,17.85
2022-10-05T21:19:56.066Z,17.82
2022-10-05T21:22:25.152Z,17.73
2022-10-05T21:24:53.160Z,17.81
2022-10-05T21:27:21.792Z,17.92
2022-10-05T21:29:50.390Z,17.86
2022-10-05T21:32:20.224Z,17.84
2022-10-05T21:34:48.199Z,18.00
2022-10-05T21:37:15.794Z,17.88
2022-10-05T21:39:43.487Z,17.91
2022-10-05T21:42:11.088Z,17.99
2022-10-05T21:44:38.702Z,17.96
2022-10-05T21:47:07.597Z,18.00
2022-10-05T21:49:36.981Z,17.97
2022-10-05T21:52:05.647Z,18.04
2022-10-05T21:54:33.912Z,17.97
2022-10-05T21:57:01.613Z,17.92
2022-10-05T21:59:32.842Z,17.94
2022-10-05T22:02:00.701Z,17.88
2022-10-05T22:04:28.424Z,18.12
2022-10-05T22:06:57.660Z,17.99
2022-10-05T22:09:25.258Z,18.02
2022-10-05T22:11:53.648Z,17.87
2022-10-05T22:14:21.386Z,17.92
2022-10-05T22:16:49.349Z,17.86
2022-10-05T22:19:19.816Z,17.91
2022-10-05T22:21:47.388Z,17.77
2022-10-05T22:24:16.523Z,17.82
2022-10-05T22:26:47.510Z,17.85
2022-10-05T22:29:16.455Z,16.76
2022-10-05T22:31:45.113Z,15.74
2022-10-05T22:34:13.454Z,15.25
2022-10-05T22:36:42.449Z,14.93
2022-10-05T22:39:10.008Z,14.79
2022-10-05T22:41:41.072Z,14.60
2022-10-05T22:44:09.110Z,14.42
2022-10-05T22:46:36.929Z,14.26
2022-10-05T22:49:04.824Z,14.05
2022-10-05T22:51:32.609Z,13.89
2022-10-05T22:54:00.550Z,13.61
2022-10-05T22:56:28.554Z,13.42
2022-10-05T22:58:57.685Z,13.26
2022-10-05T23:01:25.257Z,13.26
2022-10-05T23:03:52.907Z,13.10
2022-10-05T23:06:21.885Z,13.09
2022-10-05T23:08:49.634Z,13.05
2022-10-05T23:11:18.860Z,13.01
2022-10-05T23:13:47.444Z,12.97
2022-10-05T23:16:18.931Z,12.99
2022-10-05T23:18:49.300Z,12.98
2022-10-05T23:21:17.395Z,12.95
2022-10-05T23:23:47.338Z,12.92
2022-10-05T23:26:15.173Z,12.93
2022-10-05T23:28:46.692Z,12.92
2022-10-05T23:31:17.736Z,12.95
2022-10-05T23:33:45.824Z,13.01
2022-10-05T23:36:15.770Z,13.00
2022-10-05T23:38:43.537Z,12.97
2022-10-05T23:41:11.590Z,12.97
2022-10-05T23:43:40.646Z,12.97
2022-10-05T23:46:09.239Z,13.03
2022-10-05T23:48:38.973Z,13.02
2022-10-05T23:51:07.654Z,13.03
2022-10-05T23:53:35.499Z,13.06
2022-10-05T23:56:03.370Z,13.08
2022-10-05T23:58:31.317Z,13.12
